createdAt,value
2018-11-12T00:00:36.510Z,90.30
2018-11-12T00:03:11.399Z,90.30
2018-11-12T00:05:47.100Z,90.30
2018-11-12T00:08:22.217Z,90.20
2018-11-12T00:10:57.320Z,90.40
2018-11-12T00:13:32.825Z,90.40
2018-11-12T00:16:08.241Z,90.70
2018-11-12T00:18:43.290Z,90.80
2018-11-12T00:21:17.997Z,90.80
2018-11-12T00:23:52.711Z,90.70
2018-11-12T00:26:27.482Z,90.70
2018-11-12T00:29:02.405Z,90.60
2018-11-12T00:31:37.534Z,90.50
2018-11-12T00:34:12.577Z,91.10
2018-11-12T00:36:48.368Z,91.30
2018-11-12T00:39:23.036Z,91.20
2018-11-12T00:41:57.958Z,91.40
2018-11-12T00:44:32.861Z,91.40
2018-11-12T00:47:07.645Z,91.50
2018-11-12T00:49:42.742Z,91.40
2018-11-12T00:52:18.416Z,91.30
2018-11-12T00:54:53.530Z,91.10
2018-11-12T00:57:28.807Z,91.00
2018-11-12T01:00:04.123Z,91.40
2018-11-12T01:02:40.470Z,91.50
2018-11-12T01:05:16.108Z,91.50
2018-11-12T01:07:51.489Z,91.50
2018-11-12T01:10:26.609Z,91.70
2018-11-12T01:13:01.722Z,91.90
2018-11-12T01:15:36.371Z,91.90
2018-11-12T01:18:11.798Z,92.10
2018-11-12T01:20:46.538Z,92.00
2018-11-12T01:23:21.368Z,91.90
2018-11-12T01:25:56.277Z,91.70
2018-11-12T01:28:31.609Z,91.70
2018-11-12T01:31:07.097Z,92.10
2018-11-12T01:33:42.310Z,91.80
2018-11-12T01:36:17.051Z,91.60
2018-11-12T01:38:52.047Z,91.80
2018-11-12T01:41:26.937Z,91.80
2018-11-12T01:44:01.672Z,92.20
2018-11-12T01:46:36.402Z,92.30
2018-11-12T01:49:11.150Z,92.50
2018-11-12T01:51:46.193Z,92.50
2018-11-12T01:54:20.966Z,92.60
2018-11-12T01:56:56.650Z,92.60
2018-11-12T01:59:31.533Z,92.50
2018-11-12T02:02:06.859Z,92.40
2018-11-12T02:04:42.596Z,92.30
2018-11-12T02:07:17.545Z,92.20
2018-11-12T02:09:52.317Z,92.30
2018-11-12T02:12:27.551Z,92.30
2018-11-12T02:15:02.359Z,92.50
2018-11-12T02:17:37.530Z,92.20
2018-11-12T02:20:13.394Z,92.20
2018-11-12T02:22:49.041Z,92.10
2018-11-12T02:25:26.786Z,92.40
2018-11-12T02:28:01.581Z,92.40
2018-11-12T02:30:41.567Z,92.40
2018-11-12T02:33:17.702Z,92.40
2018-11-12T02:35:52.667Z,92.30
2018-11-12T02:38:28.479Z,91.80
2018-11-12T02:41:03.392Z,92.60
2018-11-12T02:43:38.271Z,93.30
2018-11-12T02:46:13.724Z,93.00
2018-11-12T02:48:48.754Z,92.90
2018-11-12T02:51:23.366Z,93.10
2018-11-12T02:53:58.298Z,92.90
2018-11-12T02:56:33.673Z,93.00
2018-11-12T02:59:08.364Z,93.10
2018-11-12T03:01:43.361Z,93.10
2018-11-12T03:04:18.244Z,93.20
2018-11-12T03:06:53.883Z,93.30
2018-11-12T03:09:29.298Z,93.30
2018-11-12T03:12:04.117Z,93.60
2018-11-12T03:14:39.013Z,93.40
2018-11-12T03:17:13.897Z,93.20
2018-11-12T03:19:49.423Z,93.40
2018-11-12T03:22:24.305Z,93.20
2018-11-12T03:25:00.262Z,92.90
2018-11-12T03:27:35.199Z,92.90
2018-11-12T03:30:13.722Z,93.00
2018-11-12T03:32:49.593Z,93.20
2018-11-12T03:35:25.381Z,94.40
2018-11-12T03:38:01.094Z,94.60
2018-11-12T03:40:36.080Z,93.90
2018-11-12T03:43:11.179Z,94.40
2018-11-12T03:45:45.838Z,94.20
2018-11-12T03:48:21.337Z,93.80
2018-11-12T03:50:56.190Z,93.90
2018-11-12T03:53:31.749Z,93.50
2018-11-12T03:56:07.699Z,93.50
2018-11-12T03:58:42.545Z,94.10
2018-11-12T04:01:17.606Z,94.30
2018-11-12T04:03:52.369Z,95.20
2018-11-12T04:06:27.365Z,95.80
2018-11-12T04:09:02.233Z,95.90
2018-11-12T04:11:37.900Z,95.30
2018-11-12T04:14:13.309Z,95.20
2018-11-12T04:16:48.077Z,95.60
2018-11-12T04:19:22.799Z,95.90
2018-11-12T04:21:57.740Z,96.30
2018-11-12T04:24:33.149Z,96.10
2018-11-12T04:27:08.198Z,96.40
2018-11-12T04:29:43.731Z,96.30
2018-11-12T04:32:19.294Z,96.70
2018-11-12T04:34:54.202Z,96.50
2018-11-12T04:37:29.322Z,96.40
2018-11-12T04:40:04.385Z,97.00
2018-11-12T04:42:39.810Z,96.80
2018-11-12T04:45:20.000Z,96.60
2018-11-12T04:47:55.516Z,96.60
2018-11-12T04:50:30.565Z,96.60
2018-11-12T04:53:06.191Z,96.30
2018-11-12T04:55:40.913Z,96.20
2018-11-12T04:58:15.847Z,96.30
2018-11-12T05:00:50.629Z,96.40
2018-11-12T05:03:26.030Z,96.40
2018-11-12T05:06:00.870Z,96.40
2018-11-12T05:08:35.797Z,96.70
2018-11-12T05:11:11.014Z,97.00
2018-11-12T05:13:45.825Z,96.80
2018-11-12T05:16:21.131Z,96.90
2018-11-12T05:18:56.733Z,96.60
2018-11-12T05:21:33.698Z,96.80
2018-11-12T05:24:08.797Z,96.80
2018-11-12T05:26:43.476Z,97.00
2018-11-12T05:29:18.363Z,97.10
2018-11-12T05:31:53.853Z,97.30
2018-11-12T05:34:28.682Z,97.60
2018-11-12T05:37:04.050Z,97.70
2018-11-12T05:39:39.573Z,97.60
2018-11-12T05:42:14.236Z,97.90
2018-11-12T05:44:49.501Z,97.70
2018-11-12T05:47:24.437Z,97.60
2018-11-12T05:50:00.183Z,97.70
2018-11-12T05:52:35.194Z,97.00
2018-11-12T05:55:11.655Z,97.90
2018-11-12T05:57:47.461Z,97.70
2018-11-12T06:00:24.766Z,97.90
2018-11-12T06:03:00.494Z,97.70
2018-11-12T06:05:35.655Z,97.80
2018-11-12T06:08:10.645Z,97.50
2018-11-12T06:10:45.522Z,97.50
2018-11-12T06:13:20.262Z,97.20
2018-11-12T06:15:55.128Z,97.30
2018-11-12T06:18:30.011Z,97.10
2018-11-12T06:21:06.060Z,97.50
2018-11-12T06:23:40.903Z,97.20
2018-11-12T06:26:16.266Z,97.20
2018-11-12T06:28:51.300Z,97.10
2018-11-12T06:31:33.623Z,97.30
2018-11-12T06:34:08.339Z,97.50
2018-11-12T06:36:43.424Z,97.70
2018-11-12T06:39:25.629Z,97.70
2018-11-12T06:42:00.502Z,97.70
2018-11-12T06:44:35.626Z,97.50
2018-11-12T06:47:16.942Z,97.50
2018-11-12T06:49:51.859Z,97.40
2018-11-12T06:52:27.459Z,97.50
2018-11-12T06:55:03.089Z,97.50
2018-11-12T06:57:38.085Z,97.50
2018-11-12T07:00:15.524Z,97.30
2018-11-12T07:02:50.598Z,96.90
2018-11-12T07:05:25.849Z,96.60
2018-11-12T07:08:01.078Z,96.30
2018-11-12T07:10:36.482Z,96.30
2018-11-12T07:13:11.193Z,96.10
2018-11-12T07:15:47.428Z,95.80
2018-11-12T07:18:22.745Z,95.40
2018-11-12T07:20:57.386Z,94.80
2018-11-12T07:23:32.912Z,94.10
2018-11-12T07:26:08.014Z,93.40
2018-11-12T07:28:42.978Z,93.10
2018-11-12T07:31:18.803Z,92.90
2018-11-12T07:33:54.513Z,92.60
2018-11-12T07:36:29.558Z,91.90
2018-11-12T07:39:06.302Z,91.30
2018-11-12T07:41:41.135Z,90.60
2018-11-12T07:44:15.761Z,90.00
2018-11-12T07:46:50.767Z,88.20
2018-11-12T07:49:25.868Z,87.20
2018-11-12T07:52:00.632Z,87.40
2018-11-12T07:54:35.389Z,86.10
2018-11-12T07:57:11.132Z,85.00
2018-11-12T07:59:45.889Z,85.30
2018-11-12T08:02:20.698Z,84.60
2018-11-12T08:04:55.598Z,83.10
2018-11-12T08:07:30.687Z,82.70
2018-11-12T08:10:08.250Z,81.50
2018-11-12T08:12:43.905Z,80.20
2018-11-12T08:15:19.882Z,78.60
2018-11-12T08:17:55.056Z,76.50
2018-11-12T08:20:30.294Z,75.40
2018-11-12T08:23:05.838Z,76.40
2018-11-12T08:25:41.959Z,75.80
2018-11-12T08:28:18.299Z,74.10
2018-11-12T08:30:54.224Z,73.60
2018-11-12T08:33:30.561Z,72.50
2018-11-12T08:36:06.925Z,70.10
2018-11-12T08:38:42.621Z,66.70
2018-11-12T08:41:18.725Z,68.80
2018-11-12T08:43:55.179Z,67.00
2018-11-12T08:46:30.385Z,64.30
2018-11-12T08:49:07.096Z,64.20
2018-11-12T08:51:42.702Z,63.40
2018-11-12T08:54:18.127Z,59.70
2018-11-12T08:56:53.636Z,59.40
2018-11-12T08:59:29.170Z,58.50
2018-11-12T09:02:05.282Z,60.10
2018-11-12T09:04:40.626Z,64.90
2018-11-12T09:07:16.889Z,67.20
2018-11-12T09:09:51.970Z,66.90
2018-11-12T09:12:27.493Z,66.90
2018-11-12T09:15:02.849Z,64.80
2018-11-12T09:17:38.793Z,64.40
2018-11-12T09:20:15.879Z,67.60
2018-11-12T09:22:51.101Z,69.80
2018-11-12T09:25:27.146Z,70.70
2018-11-12T09:28:02.468Z,72.00
2018-11-12T09:30:38.124Z,74.40
2018-11-12T09:33:13.326Z,74.30
2018-11-12T09:35:49.322Z,72.10
2018-11-12T09:38:24.489Z,69.70
2018-11-12T09:41:00.050Z,67.80
2018-11-12T09:43:35.553Z,67.30
2018-11-12T09:46:11.084Z,63.90
2018-11-12T09:48:46.580Z,63.90
2018-11-12T09:51:22.587Z,64.60
2018-11-12T09:53:58.867Z,65.50
2018-11-12T09:56:35.114Z,65.00
2018-11-12T09:59:10.828Z,64.50
2018-11-12T10:01:46.935Z,64.60
2018-11-12T10:04:23.334Z,63.90
2018-11-12T10:06:59.163Z,66.00
2018-11-12T10:09:34.500Z,68.20
2018-11-12T10:12:12.115Z,66.70
2018-11-12T10:14:48.130Z,65.40
2018-11-12T10:17:25.411Z,62.00
2018-11-12T10:19:57.362Z,59.60
2018-11-12T10:22:34.322Z,58.40
2018-11-12T10:25:09.631Z,57.90
2018-11-12T10:27:45.897Z,58.70
2018-11-12T10:30:21.266Z,59.40
2018-11-12T10:32:57.678Z,60.30
2018-11-12T10:35:33.134Z,60.70
2018-11-12T10:38:09.795Z,61.90
2018-11-12T10:40:45.280Z,62.60
2018-11-12T10:43:20.667Z,62.60
2018-11-12T10:45:56.161Z,60.90
2018-11-12T10:48:31.594Z,58.60
2018-11-12T10:51:07.177Z,56.10
2018-11-12T10:53:50.041Z,56.00
2018-11-12T10:56:18.296Z,53.50
2018-11-12T10:58:53.674Z,53.90
2018-11-12T11:01:36.127Z,54.60
2018-11-12T11:04:16.619Z,54.70
2018-11-12T11:06:52.394Z,55.70
2018-11-12T11:09:28.301Z,55.20
2018-11-12T11:12:03.701Z,55.60
2018-11-12T11:14:39.190Z,57.00
2018-11-12T11:17:15.239Z,57.00
2018-11-12T11:19:50.809Z,57.00
2018-11-12T11:22:27.311Z,57.80
2018-11-12T11:25:03.389Z,57.60
2018-11-12T11:27:39.961Z,58.30
2018-11-12T11:30:16.539Z,58.40
2018-11-12T11:32:52.434Z,58.50
2018-11-12T11:35:28.042Z,58.80
2018-11-12T11:38:03.977Z,59.90
2018-11-12T11:40:39.420Z,61.40
2018-11-12T11:43:15.058Z,61.30
2018-11-12T11:45:50.403Z,61.10
2018-11-12T11:48:25.955Z,62.60
2018-11-12T11:51:01.967Z,63.40
2018-11-12T11:53:37.735Z,62.80
2018-11-12T11:56:13.168Z,63.20
2018-11-12T11:58:48.462Z,63.50
2018-11-12T12:01:24.995Z,66.40
2018-11-12T12:04:01.391Z,67.40
2018-11-12T12:06:36.742Z,69.40
2018-11-12T12:09:12.367Z,71.60
2018-11-12T12:11:48.072Z,73.20
2018-11-12T12:14:23.242Z,74.70
2018-11-12T12:16:59.288Z,74.20
2018-11-12T12:19:34.988Z,74.20
2018-11-12T12:22:10.278Z,74.00
2018-11-12T12:24:45.931Z,73.70
2018-11-12T12:27:21.794Z,74.60
2018-11-12T12:29:57.410Z,75.70
2018-11-12T12:32:33.597Z,76.50
2018-11-12T12:35:11.175Z,77.20
2018-11-12T12:37:47.149Z,77.40
2018-11-12T12:40:23.358Z,77.70
2018-11-12T12:42:59.438Z,78.00
2018-11-12T12:45:39.538Z,77.80
2018-11-12T12:48:14.933Z,78.30
2018-11-12T12:50:50.483Z,78.10
2018-11-12T12:53:26.613Z,78.40
2018-11-12T12:56:02.014Z,77.40
2018-11-12T12:58:38.418Z,78.00
2018-11-12T13:01:13.724Z,78.20
2018-11-12T13:03:49.151Z,77.60
2018-11-12T13:06:24.794Z,78.80
2018-11-12T13:09:00.997Z,79.90
2018-11-12T13:11:36.518Z,80.10
2018-11-12T13:14:12.227Z,79.50
2018-11-12T13:16:47.774Z,78.60
2018-11-12T13:19:23.126Z,78.40
2018-11-12T13:21:59.191Z,78.60
2018-11-12T13:24:34.768Z,78.50
2018-11-12T13:27:10.214Z,77.80
2018-11-12T13:29:46.255Z,78.10
2018-11-12T13:32:21.808Z,76.10
2018-11-12T13:34:57.276Z,75.80
2018-11-12T13:37:32.753Z,76.70
2018-11-12T13:40:12.618Z,74.80
2018-11-12T13:42:49.906Z,70.60
2018-11-12T13:45:25.754Z,68.90
2018-11-12T13:48:01.179Z,69.90
2018-11-12T13:50:36.454Z,69.90
2018-11-12T13:53:11.907Z,70.60
2018-11-12T13:55:47.566Z,72.50
2018-11-12T13:58:23.052Z,73.30
2018-11-12T14:00:59.214Z,73.90
2018-11-12T14:03:35.059Z,73.50
2018-11-12T14:06:10.446Z,73.30
2018-11-12T14:08:45.854Z,74.10
2018-11-12T14:11:21.282Z,75.10
2018-11-12T14:13:57.863Z,76.90
2018-11-12T14:16:34.629Z,78.30
2018-11-12T14:19:10.706Z,78.40
2018-11-12T14:21:46.135Z,79.60
2018-11-12T14:24:21.759Z,78.50
2018-11-12T14:26:56.981Z,77.30
2018-11-12T14:29:33.075Z,79.10
2018-11-12T14:32:08.579Z,79.20
2018-11-12T14:34:44.080Z,79.40
2018-11-12T14:37:20.177Z,79.90
2018-11-12T14:39:56.232Z,80.40
2018-11-12T14:42:31.566Z,77.30
2018-11-12T14:45:08.711Z,77.70
2018-11-12T14:47:45.186Z,78.70
2018-11-12T14:50:20.664Z,79.90
2018-11-12T14:52:56.066Z,80.00
2018-11-12T14:55:32.551Z,80.90
2018-11-12T14:58:07.860Z,80.70
2018-11-12T15:00:43.451Z,81.20
2018-11-12T15:03:19.378Z,82.00
2018-11-12T15:05:54.646Z,82.80
2018-11-12T15:08:30.088Z,82.70
2018-11-12T15:11:05.235Z,82.60
2018-11-12T15:13:40.561Z,83.10
2018-11-12T15:16:15.352Z,83.10
2018-11-12T15:18:50.703Z,84.10
2018-11-12T15:21:25.470Z,85.00
2018-11-12T15:24:00.887Z,85.50
2018-11-12T15:26:35.852Z,86.10
2018-11-12T15:29:11.198Z,86.70
2018-11-12T15:31:46.732Z,87.10
2018-11-12T15:34:21.628Z,87.30
2018-11-12T15:36:56.456Z,87.70
2018-11-12T15:39:31.497Z,88.10
2018-11-12T15:42:06.547Z,88.40
2018-11-12T15:44:41.311Z,88.70
2018-11-12T15:47:16.118Z,88.80
2018-11-12T15:49:51.245Z,89.00
2018-11-12T15:52:26.193Z,89.60
2018-11-12T15:55:01.458Z,89.70
2018-11-12T15:57:36.188Z,90.00
2018-11-12T16:00:13.949Z,90.10
2018-11-12T16:02:48.658Z,90.40
2018-11-12T16:05:23.549Z,90.60
2018-11-12T16:07:58.294Z,90.80
2018-11-12T16:10:33.840Z,90.80
2018-11-12T16:13:09.342Z,90.80
2018-11-12T16:15:44.547Z,90.80
2018-11-12T16:18:19.216Z,91.20
2018-11-12T16:20:53.990Z,91.20
2018-11-12T16:23:28.746Z,91.30
2018-11-12T16:26:04.138Z,91.60
2018-11-12T16:28:38.920Z,91.90
2018-11-12T16:31:13.654Z,91.80
2018-11-12T16:33:48.614Z,91.20
2018-11-12T16:36:23.623Z,91.00
2018-11-12T16:38:58.600Z,91.20
2018-11-12T16:41:33.515Z,91.10
2018-11-12T16:44:09.096Z,91.10
2018-11-12T16:46:43.785Z,90.80
2018-11-12T16:49:18.546Z,91.10
2018-11-12T16:51:54.334Z,90.90
2018-11-12T16:54:30.941Z,90.80
2018-11-12T16:57:06.167Z,90.80
2018-11-12T16:59:41.828Z,90.50
2018-11-12T17:02:16.783Z,91.60
2018-11-12T17:04:51.916Z,91.10
2018-11-12T17:07:26.719Z,91.00
2018-11-12T17:10:01.715Z,91.00
2018-11-12T17:12:36.870Z,91.30
2018-11-12T17:15:12.828Z,91.20
2018-11-12T17:17:48.367Z,90.90
2018-11-12T17:20:23.281Z,90.80
2018-11-12T17:22:58.713Z,90.90
2018-11-12T17:25:34.606Z,90.90
2018-11-12T17:28:09.557Z,90.80
2018-11-12T17:30:44.756Z,91.00
2018-11-12T17:33:20.086Z,91.00
2018-11-12T17:35:55.401Z,91.20
2018-11-12T17:38:30.556Z,91.40
2018-11-12T17:41:06.306Z,91.30
2018-11-12T17:43:45.000Z,91.30
2018-11-12T17:46:19.807Z,91.30
2018-11-12T17:48:54.832Z,91.40
2018-11-12T17:51:29.964Z,91.30
2018-11-12T17:54:05.508Z,91.20
2018-11-12T17:56:40.394Z,91.30
2018-11-12T17:59:15.226Z,91.10
2018-11-12T18:01:50.173Z,91.20
2018-11-12T18:04:25.735Z,91.20
2018-11-12T18:07:00.656Z,91.40
2018-11-12T18:09:35.531Z,91.30
2018-11-12T18:12:11.611Z,91.60
2018-11-12T18:14:46.554Z,91.30
2018-11-12T18:17:22.163Z,91.20
2018-11-12T18:19:57.197Z,91.10
2018-11-12T18:22:32.337Z,91.30
2018-11-12T18:25:07.380Z,91.00
2018-11-12T18:27:42.889Z,91.00
2018-11-12T18:30:21.284Z,91.10
2018-11-12T18:32:57.536Z,91.00
2018-11-12T18:35:32.294Z,91.00
2018-11-12T18:38:07.420Z,91.20
2018-11-12T18:40:43.144Z,91.20
2018-11-12T18:43:18.363Z,91.20
2018-11-12T18:45:53.333Z,91.20
2018-11-12T18:48:28.340Z,91.10
2018-11-12T18:51:03.299Z,91.10
2018-11-12T18:53:38.798Z,91.10
2018-11-12T18:56:13.619Z,91.20
2018-11-12T18:58:48.544Z,91.30
2018-11-12T19:01:23.991Z,91.40
2018-11-12T19:03:58.838Z,90.70
2018-11-12T19:06:33.695Z,90.50
2018-11-12T19:09:10.414Z,90.40
2018-11-12T19:11:45.511Z,90.30
2018-11-12T19:14:20.386Z,90.30
2018-11-12T19:16:55.642Z,90.30
2018-11-12T19:19:30.327Z,90.50
2018-11-12T19:22:05.873Z,90.30
2018-11-12T19:24:40.627Z,90.00
2018-11-12T19:27:22.349Z,89.80
2018-11-12T19:29:57.904Z,89.20
2018-11-12T19:32:32.879Z,88.90
2018-11-12T19:35:09.297Z,88.00
2018-11-12T19:37:44.127Z,87.60
2018-11-12T19:40:21.155Z,87.60
2018-11-12T19:42:56.861Z,87.30
2018-11-12T19:45:31.766Z,87.30
2018-11-12T19:48:07.438Z,87.50
2018-11-12T19:50:42.966Z,87.70
2018-11-12T19:53:18.211Z,87.80
2018-11-12T19:55:53.676Z,88.40
2018-11-12T19:58:29.133Z,88.30
2018-11-12T20:01:03.815Z,88.10
2018-11-12T20:03:38.833Z,88.40
2018-11-12T20:06:13.884Z,88.90
2018-11-12T20:08:48.766Z,89.20
2018-11-12T20:11:24.120Z,89.30
2018-11-12T20:13:59.488Z,89.70
2018-11-12T20:16:34.595Z,89.80
2018-11-12T20:19:09.388Z,89.70
2018-11-12T20:21:44.345Z,90.10
2018-11-12T20:24:19.391Z,90.30
2018-11-12T20:26:54.518Z,90.20
2018-11-12T20:29:30.276Z,90.20
2018-11-12T20:32:06.513Z,90.20
2018-11-12T20:34:41.331Z,90.30
2018-11-12T20:37:16.407Z,90.30
2018-11-12T20:39:54.764Z,90.30
2018-11-12T20:42:29.903Z,90.30
2018-11-12T20:45:05.824Z,90.30
2018-11-12T20:47:42.360Z,90.40
2018-11-12T20:50:23.940Z,90.70
2018-11-12T20:52:58.839Z,90.80
2018-11-12T20:55:34.029Z,90.60
2018-11-12T20:58:09.211Z,90.90
2018-11-12T21:00:44.643Z,90.70
2018-11-12T21:03:19.550Z,90.80
2018-11-12T21:05:54.553Z,90.80
2018-11-12T21:08:29.839Z,90.80
2018-11-12T21:11:04.896Z,91.00
2018-11-12T21:13:39.937Z,90.70
2018-11-12T21:16:14.812Z,91.00
2018-11-12T21:18:49.955Z,91.10
2018-11-12T21:21:24.954Z,91.00
2018-11-12T21:24:00.479Z,90.80
2018-11-12T21:26:35.681Z,91.00
2018-11-12T21:29:11.357Z,91.00
2018-11-12T21:31:46.451Z,91.20
2018-11-12T21:34:21.451Z,91.20
2018-11-12T21:36:56.400Z,91.20
2018-11-12T21:39:38.129Z,91.20
2018-11-12T21:42:13.325Z,91.10
2018-11-12T21:44:48.951Z,91.10
2018-11-12T21:47:23.617Z,91.20
2018-11-12T21:49:58.554Z,91.30
2018-11-12T21:52:33.842Z,91.50
2018-11-12T21:55:10.238Z,91.20
2018-11-12T21:57:45.792Z,91.10
2018-11-12T22:00:28.485Z,91.20
2018-11-12T22:03:04.559Z,91.20
2018-11-12T22:05:39.575Z,91.20
2018-11-12T22:08:15.362Z,91.20
2018-11-12T22:10:50.485Z,91.40
2018-11-12T22:13:25.281Z,91.50
2018-11-12T22:16:00.800Z,91.50
2018-11-12T22:18:35.825Z,91.30
2018-11-12T22:21:10.997Z,91.50
2018-11-12T22:23:46.448Z,91.20
2018-11-12T22:26:22.809Z,91.30
2018-11-12T22:28:57.613Z,91.30
2018-11-12T22:31:33.043Z,91.30
2018-11-12T22:34:07.963Z,91.20
2018-11-12T22:36:43.084Z,91.20
2018-11-12T22:39:18.003Z,91.40
2018-11-12T22:41:53.120Z,91.40
2018-11-12T22:44:27.979Z,91.50
2018-11-12T22:47:02.896Z,91.90
2018-11-12T22:49:37.986Z,91.80
2018-11-12T22:52:13.197Z,92.20
2018-11-12T22:54:47.964Z,92.30
2018-11-12T22:57:25.556Z,92.30
2018-11-12T23:00:00.619Z,92.20
2018-11-12T23:02:35.383Z,92.60
2018-11-12T23:05:11.237Z,92.70
2018-11-12T23:07:53.540Z,93.10
2018-11-12T23:10:28.746Z,93.30
2018-11-12T23:13:03.551Z,93.40
2018-11-12T23:15:38.595Z,93.70
2018-11-12T23:18:13.735Z,93.50
2018-11-12T23:20:48.875Z,93.80
2018-11-12T23:23:23.654Z,93.70
2018-11-12T23:25:58.347Z,93.40
2018-11-12T23:28:33.483Z,93.60
2018-11-12T23:31:08.226Z,93.20
2018-11-12T23:33:43.127Z,93.10
2018-11-12T23:36:17.950Z,93.10
2018-11-12T23:38:53.341Z,93.10
2018-11-12T23:41:28.130Z,93.60
2018-11-12T23:44:02.876Z,93.30
2018-11-12T23:46:38.032Z,93.40
2018-11-12T23:49:13.196Z,93.60
2018-11-12T23:51:48.001Z,93.50
2018-11-12T23:54:23.888Z,93.60
2018-11-12T23:56:58.942Z,93.60
2018-11-12T23:59:33.702Z,94.00
